sensor_id;sensor_type;location;lat;lon;timestamp;P1;durP1;ratioP1;P2;durP2;ratioP2
21392;SDS011;10857;52.228;21.026;2024-01-30T00:01:10;56.43;;;25.40;;
21392;SDS011;10857;52.228;21.026;2024-01-30T00:03:37;53.90;;;26.13;;
21392;SDS011;10857;52.228;21.026;2024-01-30T00:06:05;51.00;;;24.93;;
21392;SDS011;10857;52.228;21.026;2024-01-30T00:08:32;59.87;;;26.53;;
21392;SDS011;10857;52.228;21.026;2024-01-30T00:10:59;55.53;;;26.03;;
21392;SDS011;10857;52.228;21.026;2024-01-30T00:13:27;57.00;;;26.03;;
21392;SDS011;10857;52.228;21.026;2024-01-30T00:15:54;54.60;;;26.17;;
21392;SDS011;10857;52.228;21.026;2024-01-30T00:18:21;57.23;;;27.80;;
21392;SDS011;10857;52.228;21.026;2024-01-30T00:20:48;54.17;;;26.03;;
21392;SDS011;10857;52.228;21.026;2024-01-30T00:23:15;56.27;;;26.73;;
21392;SDS011;10857;52.228;21.026;2024-01-30T00:25:42;56.77;;;27.53;;
21392;SDS011;10857;52.228;21.026;2024-01-30T00:28:10;54.40;;;25.53;;
21392;SDS011;10857;52.228;21.026;2024-01-30T00:30:37;52.30;;;24.97;;
21392;SDS011;10857;52.228;21.026;2024-01-30T00:33:04;60.43;;;26.90;;
21392;SDS011;10857;52.228;21.026;2024-01-30T00:35:31;54.40;;;26.07;;
21392;SDS011;10857;52.228;21.026;2024-01-30T00:37:58;53.13;;;26.03;;
21392;SDS011;10857;52.228;21.026;2024-01-30T00:40:26;52.57;;;25.30;;
21392;SDS011;10857;52.228;21.026;2024-01-30T00:42:53;55.13;;;26.07;;
21392;SDS011;10857;52.228;21.026;2024-01-30T00:45:20;55.60;;;26.33;;
21392;SDS011;10857;52.228;21.026;2024-01-30T00:47:48;56.03;;;27.17;;
21392;SDS011;10857;52.228;21.026;2024-01-30T00:50:15;53.73;;;25.47;;
21392;SDS011;10857;52.228;21.026;2024-01-30T00:52:42;58.20;;;25.80;;
21392;SDS011;10857;52.228;21.026;2024-01-30T00:55:11;49.80;;;24.83;;
21392;SDS011;10857;52.228;21.026;2024-01-30T00:57:39;55.23;;;25.50;;
21392;SDS011;10857;52.228;21.026;2024-01-30T01:00:10;51.87;;;25.53;;
21392;SDS011;10857;52.228;21.026;2024-01-30T01:02:39;54.73;;;26.47;;
21392;SDS011;10857;52.228;21.026;2024-01-30T01:05:06;54.27;;;26.17;;
21392;SDS011;10857;52.228;21.026;2024-01-30T01:07:33;58.93;;;25.63;;
21392;SDS011;10857;52.228;21.026;2024-01-30T01:10:01;57.00;;;25.77;;
21392;SDS011;10857;52.228;21.026;2024-01-30T01:12:29;52.50;;;24.73;;
21392;SDS011;10857;52.228;21.026;2024-01-30T01:14:56;53.23;;;25.57;;
21392;SDS011;10857;52.228;21.026;2024-01-30T01:17:24;52.13;;;25.17;;
21392;SDS011;10857;52.228;21.026;2024-01-30T01:19:51;56.77;;;26.10;;
21392;SDS011;10857;52.228;21.026;2024-01-30T01:22:18;51.13;;;25.10;;
21392;SDS011;10857;52.228;21.026;2024-01-30T01:24:46;56.97;;;25.53;;
21392;SDS011;10857;52.228;21.026;2024-01-30T01:27:13;54.50;;;25.47;;
21392;SDS011;10857;52.228;21.026;2024-01-30T01:29:40;53.57;;;24.97;;
21392;SDS011;10857;52.228;21.026;2024-01-30T01:32:07;53.93;;;25.50;;
21392;SDS011;10857;52.228;21.026;2024-01-30T01:34:34;54.10;;;26.20;;
21392;SDS011;10857;52.228;21.026;2024-01-30T01:37:01;56.13;;;25.67;;
21392;SDS011;10857;52.228;21.026;2024-01-30T01:39:28;53.90;;;25.53;;
21392;SDS011;10857;52.228;21.026;2024-01-30T01:41:55;54.73;;;25.53;;
21392;SDS011;10857;52.228;21.026;2024-01-30T01:44:22;54.97;;;25.83;;
21392;SDS011;10857;52.228;21.026;2024-01-30T01:46:53;51.03;;;24.87;;
21392;SDS011;10857;52.228;21.026;2024-01-30T01:49:22;54.17;;;25.33;;
21392;SDS011;10857;52.228;21.026;2024-01-30T01:51:51;54.00;;;25.03;;
21392;SDS011;10857;52.228;21.026;2024-01-30T01:54:23;54.37;;;25.43;;
21392;SDS011;10857;52.228;21.026;2024-01-30T01:56:52;54.57;;;26.20;;
21392;SDS011;10857;52.228;21.026;2024-01-30T01:59:19;53.97;;;25.93;;
21392;SDS011;10857;52.228;21.026;2024-01-30T02:01:47;52.70;;;25.77;;
21392;SDS011;10857;52.228;21.026;2024-01-30T02:04:17;52.67;;;25.90;;
21392;SDS011;10857;52.228;21.026;2024-01-30T02:06:45;57.10;;;26.70;;
21392;SDS011;10857;52.228;21.026;2024-01-30T02:09:12;54.03;;;25.50;;
21392;SDS011;10857;52.228;21.026;2024-01-30T02:11:39;55.63;;;26.97;;
21392;SDS011;10857;52.228;21.026;2024-01-30T02:14:07;52.70;;;25.77;;
21392;SDS011;10857;52.228;21.026;2024-01-30T02:16:34;59.37;;;26.13;;
21392;SDS011;10857;52.228;21.026;2024-01-30T02:19:01;54.33;;;26.20;;
21392;SDS011;10857;52.228;21.026;2024-01-30T02:21:28;52.03;;;25.50;;
21392;SDS011;10857;52.228;21.026;2024-01-30T02:23:55;54.63;;;26.80;;
21392;SDS011;10857;52.228;21.026;2024-01-30T02:26:24;54.57;;;26.07;;
21392;SDS011;10857;52.228;21.026;2024-01-30T02:28:51;57.50;;;27.03;;
21392;SDS011;10857;52.228;21.026;2024-01-30T02:31:18;55.53;;;26.63;;
21392;SDS011;10857;52.228;21.026;2024-01-30T02:33:46;51.07;;;24.70;;
21392;SDS011;10857;52.228;21.026;2024-01-30T02:36:13;53.20;;;25.37;;
21392;SDS011;10857;52.228;21.026;2024-01-30T02:38:42;52.77;;;24.47;;
21392;SDS011;10857;52.228;21.026;2024-01-30T02:41:09;52.63;;;24.83;;
21392;SDS011;10857;52.228;21.026;2024-01-30T02:43:36;51.17;;;25.43;;
21392;SDS011;10857;52.228;21.026;2024-01-30T02:46:03;49.77;;;24.17;;
21392;SDS011;10857;52.228;21.026;2024-01-30T02:48:30;55.80;;;24.73;;
21392;SDS011;10857;52.228;21.026;2024-01-30T02:50:57;52.67;;;24.60;;
21392;SDS011;10857;52.228;21.026;2024-01-30T02:53:24;50.13;;;23.70;;
21392;SDS011;10857;52.228;21.026;2024-01-30T02:55:51;49.40;;;24.07;;
21392;SDS011;10857;52.228;21.026;2024-01-30T02:58:18;50.87;;;24.87;;
21392;SDS011;10857;52.228;21.026;2024-01-30T03:00:45;52.00;;;24.67;;
21392;SDS011;10857;52.228;21.026;2024-01-30T03:03:13;54.73;;;23.27;;
21392;SDS011;10857;52.228;21.026;2024-01-30T03:05:40;54.40;;;24.60;;
21392;SDS011;10857;52.228;21.026;2024-01-30T03:08:08;53.20;;;25.13;;
21392;SDS011;10857;52.228;21.026;2024-01-30T03:10:35;52.57;;;24.03;;
21392;SDS011;10857;52.228;21.026;2024-01-30T03:13:03;51.87;;;24.30;;
21392;SDS011;10857;52.228;21.026;2024-01-30T03:15:30;51.43;;;23.57;;
21392;SDS011;10857;52.228;21.026;2024-01-30T03:17:57;53.93;;;24.30;;
21392;SDS011;10857;52.228;21.026;2024-01-30T03:20:24;49.57;;;23.30;;
21392;SDS011;10857;52.228;21.026;2024-01-30T03:22:51;50.47;;;23.47;;
21392;SDS011;10857;52.228;21.026;2024-01-30T03:25:18;51.20;;;23.97;;
21392;SDS011;10857;52.228;21.026;2024-01-30T03:27:45;52.50;;;23.90;;
21392;SDS011;10857;52.228;21.026;2024-01-30T03:30:12;50.67;;;24.33;;
21392;SDS011;10857;52.228;21.026;2024-01-30T03:32:40;48.30;;;23.23;;
21392;SDS011;10857;52.228;21.026;2024-01-30T03:35:07;55.70;;;23.97;;
21392;SDS011;10857;52.228;21.026;2024-01-30T03:37:34;51.13;;;23.70;;
21392;SDS011;10857;52.228;21.026;2024-01-30T03:40:02;50.77;;;23.60;;
21392;SDS011;10857;52.228;21.026;2024-01-30T03:42:29;51.63;;;23.80;;
21392;SDS011;10857;52.228;21.026;2024-01-30T03:44:56;50.63;;;24.37;;
21392;SDS011;10857;52.228;21.026;2024-01-30T03:47:23;53.43;;;24.13;;
21392;SDS011;10857;52.228;21.026;2024-01-30T03:49:50;47.47;;;23.07;;
21392;SDS011;10857;52.228;21.026;2024-01-30T03:52:18;48.43;;;23.30;;
21392;SDS011;10857;52.228;21.026;2024-01-30T03:54:45;51.83;;;23.87;;
21392;SDS011;10857;52.228;21.026;2024-01-30T03:57:12;54.07;;;25.37;;
21392;SDS011;10857;52.228;21.026;2024-01-30T03:59:41;51.73;;;23.70;;
21392;SDS011;10857;52.228;21.026;2024-01-30T04:02:09;47.33;;;22.80;;
21392;SDS011;10857;52.228;21.026;2024-01-30T04:04:38;54.13;;;23.93;;
21392;SDS011;10857;52.228;21.026;2024-01-30T04:07:05;51.87;;;24.03;;
21392;SDS011;10857;52.228;21.026;2024-01-30T04:09:32;47.47;;;23.60;;
21392;SDS011;10857;52.228;21.026;2024-01-30T04:12:00;47.47;;;22.43;;
21392;SDS011;10857;52.228;21.026;2024-01-30T04:14:29;49.07;;;23.40;;
21392;SDS011;10857;52.228;21.026;2024-01-30T04:16:56;50.30;;;23.73;;
21392;SDS011;10857;52.228;21.026;2024-01-30T04:19:23;51.17;;;23.87;;
21392;SDS011;10857;52.228;21.026;2024-01-30T04:21:51;50.43;;;23.57;;
21392;SDS011;10857;52.228;21.026;2024-01-30T04:24:18;47.73;;;23.73;;
21392;SDS011;10857;52.228;21.026;2024-01-30T04:26:45;48.77;;;23.67;;
21392;SDS011;10857;52.228;21.026;2024-01-30T04:29:12;48.97;;;23.33;;
21392;SDS011;10857;52.228;21.026;2024-01-30T04:31:39;46.87;;;23.37;;
21392;SDS011;10857;52.228;21.026;2024-01-30T04:34:06;48.77;;;23.20;;
21392;SDS011;10857;52.228;21.026;2024-01-30T04:36:33;50.73;;;23.70;;
21392;SDS011;10857;52.228;21.026;2024-01-30T04:39:00;50.20;;;23.47;;
21392;SDS011;10857;52.228;21.026;2024-01-30T04:41:27;49.53;;;23.77;;
21392;SDS011;10857;52.228;21.026;2024-01-30T04:43:58;48.03;;;22.70;;
21392;SDS011;10857;52.228;21.026;2024-01-30T04:46:25;49.70;;;23.00;;
21392;SDS011;10857;52.228;21.026;2024-01-30T04:48:52;50.33;;;24.37;;
21392;SDS011;10857;52.228;21.026;2024-01-30T04:51:19;45.97;;;23.10;;
21392;SDS011;10857;52.228;21.026;2024-01-30T04:53:46;52.00;;;22.57;;
21392;SDS011;10857;52.228;21.026;2024-01-30T04:56:13;50.03;;;23.40;;
21392;SDS011;10857;52.228;21.026;2024-01-30T04:58:40;50.20;;;23.73;;
21392;SDS011;10857;52.228;21.026;2024-01-30T05:01:07;50.27;;;23.97;;
21392;SDS011;10857;52.228;21.026;2024-01-30T05:03:34;48.40;;;22.97;;
21392;SDS011;10857;52.228;21.026;2024-01-30T05:06:02;53.27;;;24.90;;
21392;SDS011;10857;52.228;21.026;2024-01-30T05:08:29;49.53;;;24.97;;
21392;SDS011;10857;52.228;21.026;2024-01-30T05:10:56;50.90;;;23.60;;
21392;SDS011;10857;52.228;21.026;2024-01-30T05:13:26;49.37;;;23.47;;
21392;SDS011;10857;52.228;21.026;2024-01-30T05:15:53;52.30;;;23.33;;
21392;SDS011;10857;52.228;21.026;2024-01-30T05:18:20;54.77;;;24.27;;
21392;SDS011;10857;52.228;21.026;2024-01-30T05:20:47;48.43;;;23.33;;
21392;SDS011;10857;52.228;21.026;2024-01-30T05:23:14;48.23;;;24.20;;
21392;SDS011;10857;52.228;21.026;2024-01-30T05:25:41;49.57;;;23.27;;
21392;SDS011;10857;52.228;21.026;2024-01-30T05:28:08;52.23;;;23.97;;
21392;SDS011;10857;52.228;21.026;2024-01-30T05:30:35;50.57;;;24.33;;
21392;SDS011;10857;52.228;21.026;2024-01-30T05:33:03;48.33;;;23.70;;
21392;SDS011;10857;52.228;21.026;2024-01-30T05:35:31;51.07;;;24.03;;
21392;SDS011;10857;52.228;21.026;2024-01-30T05:37:58;51.63;;;23.60;;
21392;SDS011;10857;52.228;21.026;2024-01-30T05:40:25;55.60;;;25.70;;
21392;SDS011;10857;52.228;21.026;2024-01-30T05:42:52;49.20;;;24.00;;
21392;SDS011;10857;52.228;21.026;2024-01-30T05:45:19;50.73;;;24.17;;
21392;SDS011;10857;52.228;21.026;2024-01-30T05:47:46;48.87;;;23.80;;
21392;SDS011;10857;52.228;21.026;2024-01-30T05:50:13;51.97;;;23.97;;
21392;SDS011;10857;52.228;21.026;2024-01-30T05:52:40;52.87;;;24.27;;
21392;SDS011;10857;52.228;21.026;2024-01-30T05:55:08;50.60;;;23.47;;
21392;SDS011;10857;52.228;21.026;2024-01-30T05:57:36;49.20;;;23.20;;
21392;SDS011;10857;52.228;21.026;2024-01-30T06:00:04;49.07;;;23.20;;
21392;SDS011;10857;52.228;21.026;2024-01-30T06:02:32;51.23;;;24.37;;
21392;SDS011;10857;52.228;21.026;2024-01-30T06:04:59;49.73;;;22.87;;
21392;SDS011;10857;52.228;21.026;2024-01-30T06:07:26;48.93;;;24.33;;
21392;SDS011;10857;52.228;21.026;2024-01-30T06:09:55;48.47;;;22.77;;
21392;SDS011;10857;52.228;21.026;2024-01-30T06:12:23;48.40;;;23.63;;
21392;SDS011;10857;52.228;21.026;2024-01-30T06:14:50;48.43;;;23.77;;
21392;SDS011;10857;52.228;21.026;2024-01-30T06:17:17;48.70;;;23.37;;
21392;SDS011;10857;52.228;21.026;2024-01-30T06:19:44;49.40;;;24.27;;
21392;SDS011;10857;52.228;21.026;2024-01-30T06:22:11;50.73;;;23.67;;
21392;SDS011;10857;52.228;21.026;2024-01-30T06:24:38;49.27;;;22.67;;
21392;SDS011;10857;52.228;21.026;2024-01-30T06:27:05;49.07;;;22.87;;
21392;SDS011;10857;52.228;21.026;2024-01-30T06:29:32;50.70;;;23.77;;
21392;SDS011;10857;52.228;21.026;2024-01-30T06:31:59;55.10;;;24.50;;
21392;SDS011;10857;52.228;21.026;2024-01-30T06:34:26;51.27;;;24.47;;
21392;SDS011;10857;52.228;21.026;2024-01-30T06:36:53;45.63;;;23.03;;
21392;SDS011;10857;52.228;21.026;2024-01-30T06:39:20;49.83;;;23.90;;
21392;SDS011;10857;52.228;21.026;2024-01-30T06:41:47;48.90;;;22.30;;
21392;SDS011;10857;52.228;21.026;2024-01-30T06:44:14;47.33;;;23.17;;
21392;SDS011;10857;52.228;21.026;2024-01-30T06:46:41;47.27;;;22.27;;
21392;SDS011;10857;52.228;21.026;2024-01-30T06:49:08;52.60;;;22.70;;
21392;SDS011;10857;52.228;21.026;2024-01-30T06:51:35;54.40;;;23.93;;
21392;SDS011;10857;52.228;21.026;2024-01-30T06:54:03;55.60;;;23.03;;
21392;SDS011;10857;52.228;21.026;2024-01-30T06:56:30;52.60;;;21.67;;
21392;SDS011;10857;52.228;21.026;2024-01-30T06:58:57;57.33;;;22.37;;
21392;SDS011;10857;52.228;21.026;2024-01-30T07:01:29;52.53;;;22.27;;
21392;SDS011;10857;52.228;21.026;2024-01-30T07:03:57;45.00;;;22.00;;
21392;SDS011;10857;52.228;21.026;2024-01-30T07:06:24;49.17;;;22.10;;
21392;SDS011;10857;52.228;21.026;2024-01-30T07:08:51;56.17;;;22.20;;
21392;SDS011;10857;52.228;21.026;2024-01-30T07:11:19;49.87;;;21.93;;
21392;SDS011;10857;52.228;21.026;2024-01-30T07:13:48;47.67;;;21.57;;
21392;SDS011;10857;52.228;21.026;2024-01-30T07:16:18;47.37;;;22.10;;
21392;SDS011;10857;52.228;21.026;2024-01-30T07:18:45;48.27;;;21.83;;
21392;SDS011;10857;52.228;21.026;2024-01-30T07:21:13;54.67;;;23.03;;
21392;SDS011;10857;52.228;21.026;2024-01-30T07:23:40;48.43;;;22.57;;
21392;SDS011;10857;52.228;21.026;2024-01-30T07:26:08;49.63;;;22.53;;
21392;SDS011;10857;52.228;21.026;2024-01-30T07:28:35;52.00;;;22.50;;
21392;SDS011;10857;52.228;21.026;2024-01-30T07:31:02;52.60;;;22.90;;
21392;SDS011;10857;52.228;21.026;2024-01-30T07:33:30;51.47;;;22.73;;
21392;SDS011;10857;52.228;21.026;2024-01-30T07:35:57;49.70;;;22.80;;
21392;SDS011;10857;52.228;21.026;2024-01-30T07:38:24;47.70;;;22.70;;
21392;SDS011;10857;52.228;21.026;2024-01-30T07:40:51;52.20;;;21.80;;
21392;SDS011;10857;52.228;21.026;2024-01-30T07:43:18;49.33;;;22.20;;
21392;SDS011;10857;52.228;21.026;2024-01-30T07:45:46;50.10;;;23.37;;
21392;SDS011;10857;52.228;21.026;2024-01-30T07:48:14;48.93;;;23.17;;
21392;SDS011;10857;52.228;21.026;2024-01-30T07:50:41;46.87;;;22.17;;
21392;SDS011;10857;52.228;21.026;2024-01-30T07:53:08;53.77;;;22.40;;
21392;SDS011;10857;52.228;21.026;2024-01-30T07:55:35;55.63;;;24.27;;
21392;SDS011;10857;52.228;21.026;2024-01-30T07:58:02;49.10;;;22.53;;
21392;SDS011;10857;52.228;21.026;2024-01-30T08:00:31;49.90;;;22.37;;
21392;SDS011;10857;52.228;21.026;2024-01-30T08:02:58;56.57;;;26.87;;
21392;SDS011;10857;52.228;21.026;2024-01-30T08:05:25;51.63;;;22.20;;
21392;SDS011;10857;52.228;21.026;2024-01-30T08:07:53;45.97;;;22.07;;
21392;SDS011;10857;52.228;21.026;2024-01-30T08:10:20;44.60;;;21.23;;
21392;SDS011;10857;52.228;21.026;2024-01-30T08:12:47;47.73;;;23.03;;
21392;SDS011;10857;52.228;21.026;2024-01-30T08:15:14;49.30;;;21.07;;
21392;SDS011;10857;52.228;21.026;2024-01-30T08:17:41;50.70;;;21.93;;
21392;SDS011;10857;52.228;21.026;2024-01-30T08:20:09;48.93;;;22.57;;
21392;SDS011;10857;52.228;21.026;2024-01-30T08:22:39;43.83;;;20.37;;
21392;SDS011;10857;52.228;21.026;2024-01-30T08:25:07;40.40;;;20.77;;
21392;SDS011;10857;52.228;21.026;2024-01-30T08:27:36;44.03;;;20.63;;
21392;SDS011;10857;52.228;21.026;2024-01-30T08:30:08;44.60;;;21.63;;
21392;SDS011;10857;52.228;21.026;2024-01-30T08:32:35;43.57;;;21.43;;
21392;SDS011;10857;52.228;21.026;2024-01-30T08:35:02;41.77;;;20.17;;
21392;SDS011;10857;52.228;21.026;2024-01-30T08:37:30;43.63;;;20.17;;
21392;SDS011;10857;52.228;21.026;2024-01-30T08:39:57;43.73;;;19.50;;
21392;SDS011;10857;52.228;21.026;2024-01-30T08:42:25;44.57;;;20.53;;
21392;SDS011;10857;52.228;21.026;2024-01-30T08:44:52;46.60;;;20.27;;
21392;SDS011;10857;52.228;21.026;2024-01-30T08:47:19;41.53;;;19.57;;
21392;SDS011;10857;52.228;21.026;2024-01-30T08:49:46;43.13;;;19.47;;
21392;SDS011;10857;52.228;21.026;2024-01-30T08:52:13;43.37;;;20.13;;
21392;SDS011;10857;52.228;21.026;2024-01-30T08:54:41;41.90;;;21.30;;
21392;SDS011;10857;52.228;21.026;2024-01-30T08:57:08;44.23;;;20.43;;
21392;SDS011;10857;52.228;21.026;2024-01-30T08:59:35;37.60;;;19.20;;
21392;SDS011;10857;52.228;21.026;2024-01-30T09:02:02;40.53;;;20.40;;
21392;SDS011;10857;52.228;21.026;2024-01-30T09:04:38;43.83;;;20.00;;
21392;SDS011;10857;52.228;21.026;2024-01-30T09:07:06;42.90;;;20.47;;
21392;SDS011;10857;52.228;21.026;2024-01-30T09:09:39;42.17;;;20.20;;
21392;SDS011;10857;52.228;21.026;2024-01-30T09:12:07;44.37;;;20.33;;
21392;SDS011;10857;52.228;21.026;2024-01-30T09:14:39;40.70;;;19.57;;
21392;SDS011;10857;52.228;21.026;2024-01-30T09:17:06;37.53;;;19.40;;
21392;SDS011;10857;52.228;21.026;2024-01-30T09:19:34;43.73;;;19.53;;
21392;SDS011;10857;52.228;21.026;2024-01-30T09:22:01;39.00;;;20.30;;
21392;SDS011;10857;52.228;21.026;2024-01-30T09:24:29;40.77;;;18.93;;
21392;SDS011;10857;52.228;21.026;2024-01-30T09:26:56;39.00;;;18.80;;
21392;SDS011;10857;52.228;21.026;2024-01-30T09:29:23;39.50;;;19.67;;
21392;SDS011;10857;52.228;21.026;2024-01-30T09:31:50;40.80;;;18.57;;
21392;SDS011;10857;52.228;21.026;2024-01-30T09:34:17;39.30;;;18.13;;
21392;SDS011;10857;52.228;21.026;2024-01-30T09:36:45;38.50;;;20.30;;
21392;SDS011;10857;52.228;21.026;2024-01-30T09:39:12;36.95;;;20.67;;
21392;SDS011;10857;52.228;21.026;2024-01-30T09:41:45;40.80;;;18.20;;
21392;SDS011;10857;52.228;21.026;2024-01-30T09:44:16;33.60;;;17.50;;
21392;SDS011;10857;52.228;21.026;2024-01-30T09:46:46;37.33;;;17.87;;
21392;SDS011;10857;52.228;21.026;2024-01-30T09:49:16;38.97;;;16.83;;
21392;SDS011;10857;52.228;21.026;2024-01-30T09:51:47;35.77;;;16.63;;
21392;SDS011;10857;52.228;21.026;2024-01-30T09:54:15;35.33;;;16.30;;
21392;SDS011;10857;52.228;21.026;2024-01-30T09:56:43;33.20;;;15.87;;
21392;SDS011;10857;52.228;21.026;2024-01-30T09:59:10;34.80;;;16.43;;
21392;SDS011;10857;52.228;21.026;2024-01-30T10:01:37;36.03;;;16.60;;
21392;SDS011;10857;52.228;21.026;2024-01-30T10:04:06;35.23;;;16.50;;
21392;SDS011;10857;52.228;21.026;2024-01-30T10:06:34;35.13;;;15.97;;
21392;SDS011;10857;52.228;21.026;2024-01-30T10:09:01;34.33;;;16.00;;
21392;SDS011;10857;52.228;21.026;2024-01-30T10:11:31;33.73;;;16.37;;
21392;SDS011;10857;52.228;21.026;2024-01-30T10:13:58;30.53;;;16.30;;
21392;SDS011;10857;52.228;21.026;2024-01-30T10:16:26;33.17;;;16.50;;
21392;SDS011;10857;52.228;21.026;2024-01-30T10:18:53;32.33;;;16.50;;
21392;SDS011;10857;52.228;21.026;2024-01-30T10:21:21;32.23;;;15.70;;
21392;SDS011;10857;52.228;21.026;2024-01-30T10:23:49;34.03;;;16.73;;
21392;SDS011;10857;52.228;21.026;2024-01-30T10:26:16;33.47;;;16.80;;
21392;SDS011;10857;52.228;21.026;2024-01-30T10:28:47;32.03;;;16.23;;
21392;SDS011;10857;52.228;21.026;2024-01-30T10:31:18;28.17;;;15.87;;
21392;SDS011;10857;52.228;21.026;2024-01-30T10:33:45;34.37;;;15.93;;
21392;SDS011;10857;52.228;21.026;2024-01-30T10:36:13;32.77;;;16.20;;
21392;SDS011;10857;52.228;21.026;2024-01-30T10:38:46;37.47;;;16.57;;
21392;SDS011;10857;52.228;21.026;2024-01-30T10:41:18;29.40;;;15.20;;
21392;SDS011;10857;52.228;21.026;2024-01-30T10:44:02;34.50;;;15.97;;
21392;SDS011;10857;52.228;21.026;2024-01-30T10:46:35;31.17;;;16.17;;
21392;SDS011;10857;52.228;21.026;2024-01-30T10:49:04;30.97;;;16.10;;
21392;SDS011;10857;52.228;21.026;2024-01-30T10:51:32;30.93;;;16.03;;
21392;SDS011;10857;52.228;21.026;2024-01-30T10:54:02;33.27;;;16.40;;
21392;SDS011;10857;52.228;21.026;2024-01-30T10:56:32;34.20;;;15.73;;
21392;SDS011;10857;52.228;21.026;2024-01-30T10:59:00;34.53;;;15.47;;
21392;SDS011;10857;52.228;21.026;2024-01-30T11:01:27;30.93;;;15.33;;
21392;SDS011;10857;52.228;21.026;2024-01-30T11:03:55;33.27;;;15.67;;
21392;SDS011;10857;52.228;21.026;2024-01-30T11:06:27;28.63;;;15.73;;
21392;SDS011;10857;52.228;21.026;2024-01-30T11:09:04;33.37;;;15.33;;
21392;SDS011;10857;52.228;21.026;2024-01-30T11:11:58;33.50;;;16.53;;
21392;SDS011;10857;52.228;21.026;2024-01-30T11:14:29;34.63;;;17.07;;
21392;SDS011;10857;52.228;21.026;2024-01-30T11:16:57;33.70;;;15.60;;
21392;SDS011;10857;52.228;21.026;2024-01-30T11:19:26;32.20;;;16.03;;
21392;SDS011;10857;52.228;21.026;2024-01-30T11:21:55;29.80;;;15.73;;
21392;SDS011;10857;52.228;21.026;2024-01-30T11:24:24;31.80;;;15.73;;
21392;SDS011;10857;52.228;21.026;2024-01-30T11:26:58;28.67;;;15.53;;
21392;SDS011;10857;52.228;21.026;2024-01-30T11:29:29;32.57;;;15.80;;
21392;SDS011;10857;52.228;21.026;2024-01-30T11:31:58;29.53;;;15.67;;
21392;SDS011;10857;52.228;21.026;2024-01-30T11:34:25;36.27;;;16.50;;
21392;SDS011;10857;52.228;21.026;2024-01-30T11:36:57;32.17;;;16.47;;
21392;SDS011;10857;52.228;21.026;2024-01-30T11:39:26;33.67;;;15.97;;
21392;SDS011;10857;52.228;21.026;2024-01-30T11:41:55;28.30;;;15.90;;
21392;SDS011;10857;52.228;21.026;2024-01-30T11:44:22;31.07;;;15.80;;
21392;SDS011;10857;52.228;21.026;2024-01-30T11:46:51;31.83;;;15.63;;
21392;SDS011;10857;52.228;21.026;2024-01-30T11:49:19;30.90;;;15.90;;
21392;SDS011;10857;52.228;21.026;2024-01-30T11:51:46;32.03;;;15.93;;
21392;SDS011;10857;52.228;21.026;2024-01-30T11:54:16;34.40;;;15.87;;
21392;SDS011;10857;52.228;21.026;2024-01-30T11:56:43;33.83;;;15.20;;
21392;SDS011;10857;52.228;21.026;2024-01-30T11:59:10;29.57;;;15.20;;
21392;SDS011;10857;52.228;21.026;2024-01-30T12:01:37;27.60;;;15.07;;
21392;SDS011;10857;52.228;21.026;2024-01-30T12:04:06;31.40;;;15.23;;
21392;SDS011;10857;52.228;21.026;2024-01-30T12:06:37;28.87;;;14.97;;
21392;SDS011;10857;52.228;21.026;2024-01-30T12:09:05;31.10;;;15.47;;
21392;SDS011;10857;52.228;21.026;2024-01-30T12:11:44;32.03;;;15.63;;
21392;SDS011;10857;52.228;21.026;2024-01-30T12:14:12;28.47;;;15.50;;
21392;SDS011;10857;52.228;21.026;2024-01-30T12:16:40;29.13;;;15.13;;
21392;SDS011;10857;52.228;21.026;2024-01-30T12:19:10;31.80;;;14.70;;
21392;SDS011;10857;52.228;21.026;2024-01-30T12:21:38;34.63;;;17.43;;
21392;SDS011;10857;52.228;21.026;2024-01-30T12:24:05;30.00;;;15.50;;
21392;SDS011;10857;52.228;21.026;2024-01-30T12:26:34;31.70;;;15.00;;
21392;SDS011;10857;52.228;21.026;2024-01-30T12:29:03;30.83;;;14.83;;
21392;SDS011;10857;52.228;21.026;2024-01-30T12:31:31;32.00;;;15.93;;
21392;SDS011;10857;52.228;21.026;2024-01-30T12:33:59;30.73;;;15.53;;
21392;SDS011;10857;52.228;21.026;2024-01-30T12:36:28;31.17;;;15.00;;
21392;SDS011;10857;52.228;21.026;2024-01-30T12:38:56;29.03;;;15.33;;
21392;SDS011;10857;52.228;21.026;2024-01-30T12:41:24;30.10;;;14.53;;
21392;SDS011;10857;52.228;21.026;2024-01-30T12:43:56;34.60;;;16.10;;
21392;SDS011;10857;52.228;21.026;2024-01-30T12:46:28;32.27;;;15.33;;
21392;SDS011;10857;52.228;21.026;2024-01-30T12:48:55;31.77;;;14.30;;
21392;SDS011;10857;52.228;21.026;2024-01-30T12:51:23;30.67;;;14.53;;
21392;SDS011;10857;52.228;21.026;2024-01-30T12:53:51;26.13;;;14.37;;
21392;SDS011;10857;52.228;21.026;2024-01-30T12:56:18;32.30;;;15.00;;
21392;SDS011;10857;52.228;21.026;2024-01-30T12:58:45;31.17;;;15.33;;
21392;SDS011;10857;52.228;21.026;2024-01-30T13:01:17;28.93;;;14.37;;
21392;SDS011;10857;52.228;21.026;2024-01-30T13:03:44;32.60;;;14.80;;
21392;SDS011;10857;52.228;21.026;2024-01-30T13:06:12;26.90;;;15.03;;
21392;SDS011;10857;52.228;21.026;2024-01-30T13:08:39;28.67;;;15.80;;
21392;SDS011;10857;52.228;21.026;2024-01-30T13:11:06;29.50;;;15.93;;
21392;SDS011;10857;52.228;21.026;2024-01-30T13:13:42;29.13;;;15.60;;
21392;SDS011;10857;52.228;21.026;2024-01-30T13:16:10;31.33;;;15.73;;
21392;SDS011;10857;52.228;21.026;2024-01-30T13:18:37;29.20;;;15.37;;
21392;SDS011;10857;52.228;21.026;2024-01-30T13:21:04;29.27;;;15.67;;
21392;SDS011;10857;52.228;21.026;2024-01-30T13:23:31;30.87;;;15.07;;
21392;SDS011;10857;52.228;21.026;2024-01-30T13:25:58;30.67;;;15.13;;
21392;SDS011;10857;52.228;21.026;2024-01-30T13:28:25;32.00;;;14.97;;
21392;SDS011;10857;52.228;21.026;2024-01-30T13:30:53;29.27;;;15.70;;
21392;SDS011;10857;52.228;21.026;2024-01-30T13:33:20;28.67;;;14.77;;
21392;SDS011;10857;52.228;21.026;2024-01-30T13:35:48;29.60;;;15.27;;
21392;SDS011;10857;52.228;21.026;2024-01-30T13:38:15;27.50;;;14.40;;
21392;SDS011;10857;52.228;21.026;2024-01-30T13:40:43;32.40;;;15.23;;
21392;SDS011;10857;52.228;21.026;2024-01-30T13:43:10;27.73;;;14.67;;
21392;SDS011;10857;52.228;21.026;2024-01-30T13:45:41;27.60;;;15.23;;
21392;SDS011;10857;52.228;21.026;2024-01-30T13:48:09;35.93;;;15.67;;
21392;SDS011;10857;52.228;21.026;2024-01-30T13:50:36;32.63;;;15.17;;
21392;SDS011;10857;52.228;21.026;2024-01-30T13:53:03;35.17;;;14.37;;
21392;SDS011;10857;52.228;21.026;2024-01-30T13:55:33;33.47;;;15.03;;
21392;SDS011;10857;52.228;21.026;2024-01-30T13:58:01;32.57;;;15.00;;
21392;SDS011;10857;52.228;21.026;2024-01-30T14:00:28;31.20;;;15.47;;
21392;SDS011;10857;52.228;21.026;2024-01-30T14:02:55;32.30;;;15.40;;
21392;SDS011;10857;52.228;21.026;2024-01-30T14:05:24;30.77;;;15.07;;
21392;SDS011;10857;52.228;21.026;2024-01-30T14:07:51;31.67;;;15.17;;
21392;SDS011;10857;52.228;21.026;2024-01-30T14:10:19;31.97;;;15.37;;
21392;SDS011;10857;52.228;21.026;2024-01-30T14:12:48;29.97;;;14.77;;